sensor_id;sensor_type;location;lat;lon;timestamp;pressure;altitude;pressure_sealevel;temperature
9985;BMP180;16737;50.932;6.780;2023-03-16T00:01:18;100502.00;;;6.80
9985;BMP180;16737;50.932;6.780;2023-03-16T00:03:47;100509.00;;;6.70
9985;BMP180;16737;50.932;6.780;2023-03-16T00:06:14;100513.00;;;6.70
9985;BMP180;16737;50.932;6.780;2023-03-16T00:08:41;100515.00;;;6.70
9985;BMP180;16737;50.932;6.780;2023-03-16T00:11:09;100521.00;;;6.60
9985;BMP180;16737;50.932;6.780;2023-03-16T00:13:37;100511.00;;;6.60
9985;BMP180;16737;50.932;6.780;2023-03-16T00:16:04;100497.00;;;6.60
9985;BMP180;16737;50.932;6.780;2023-03-16T00:18:32;100501.00;;;6.60
9985;BMP180;16737;50.932;6.780;2023-03-16T00:21:05;100502.00;;;6.50
9985;BMP180;16737;50.932;6.780;2023-03-16T00:23:33;100478.00;;;6.50
9985;BMP180;16737;50.932;6.780;2023-03-16T00:26:04;100489.00;;;6.30
9985;BMP180;16737;50.932;6.780;2023-03-16T00:28:33;100486.00;;;6.50
9985;BMP180;16737;50.932;6.780;2023-03-16T00:31:01;100497.00;;;6.40
9985;BMP180;16737;50.932;6.780;2023-03-16T00:33:28;100470.00;;;6.40
9985;BMP180;16737;50.932;6.780;2023-03-16T00:36:06;100479.00;;;6.40
9985;BMP180;16737;50.932;6.780;2023-03-16T00:38:36;100461.00;;;6.30
9985;BMP180;16737;50.932;6.780;2023-03-16T00:41:06;100482.00;;;6.30
9985;BMP180;16737;50.932;6.780;2023-03-16T00:43:36;100479.00;;;6.30
9985;BMP180;16737;50.932;6.780;2023-03-16T00:46:06;100464.00;;;6.30
9985;BMP180;16737;50.932;6.780;2023-03-16T00:48:35;100471.00;;;6.30
9985;BMP180;16737;50.932;6.780;2023-03-16T00:51:06;100475.00;;;6.30
9985;BMP180;16737;50.932;6.780;2023-03-16T00:53:35;100488.00;;;6.30
9985;BMP180;16737;50.932;6.780;2023-03-16T00:56:03;100480.00;;;6.40
9985;BMP180;16737;50.932;6.780;2023-03-16T00:58:30;100491.00;;;6.40
9985;BMP180;16737;50.932;6.780;2023-03-16T01:01:00;100463.00;;;6.40
9985;BMP180;16737;50.932;6.780;2023-03-16T01:03:27;100482.00;;;6.40
9985;BMP180;16737;50.932;6.780;2023-03-16T01:05:54;100494.00;;;6.50
9985;BMP180;16737;50.932;6.780;2023-03-16T01:08:26;100484.00;;;6.50
9985;BMP180;16737;50.932;6.780;2023-03-16T01:10:53;100484.00;;;6.50
9985;BMP180;16737;50.932;6.780;2023-03-16T01:13:21;100471.00;;;6.50
9985;BMP180;16737;50.932;6.780;2023-03-16T01:15:50;100467.00;;;6.50
9985;BMP180;16737;50.932;6.780;2023-03-16T01:18:17;100469.00;;;6.50
9985;BMP180;16737;50.932;6.780;2023-03-16T01:20:44;100454.00;;;6.50
9985;BMP180;16737;50.932;6.780;2023-03-16T01:23:15;100430.00;;;6.50
9985;BMP180;16737;50.932;6.780;2023-03-16T01:25:44;100460.00;;;6.50
9985;BMP180;16737;50.932;6.780;2023-03-16T01:28:18;100435.00;;;6.50
9985;BMP180;16737;50.932;6.780;2023-03-16T01:30:46;100437.00;;;6.40
9985;BMP180;16737;50.932;6.780;2023-03-16T01:33:13;100418.00;;;6.40
9985;BMP180;16737;50.932;6.780;2023-03-16T01:35:40;100449.00;;;6.40
9985;BMP180;16737;50.932;6.780;2023-03-16T01:38:07;100433.00;;;6.40
9985;BMP180;16737;50.932;6.780;2023-03-16T01:40:34;100443.00;;;6.40
9985;BMP180;16737;50.932;6.780;2023-03-16T01:43:05;100430.00;;;6.40
9985;BMP180;16737;50.932;6.780;2023-03-16T01:46:14;100425.00;;;6.40
9985;BMP180;16737;50.932;6.780;2023-03-16T01:48:51;100430.00;;;6.40
9985;BMP180;16737;50.932;6.780;2023-03-16T01:51:24;100409.00;;;6.40
9985;BMP180;16737;50.932;6.780;2023-03-16T01:53:57;100418.00;;;6.30
9985;BMP180;16737;50.932;6.780;2023-03-16T01:56:32;100394.00;;;6.30
9985;BMP180;16737;50.932;6.780;2023-03-16T01:59:06;100419.00;;;6.20
9985;BMP180;16737;50.932;6.780;2023-03-16T02:01:35;100389.00;;;6.30
9985;BMP180;16737;50.932;6.780;2023-03-16T02:04:16;100410.00;;;6.30
9985;BMP180;16737;50.932;6.780;2023-03-16T02:06:48;100405.00;;;6.40
9985;BMP180;16737;50.932;6.780;2023-03-16T02:09:17;100414.00;;;6.40
9985;BMP180;16737;50.932;6.780;2023-03-16T02:11:46;100408.00;;;6.40
9985;BMP180;16737;50.932;6.780;2023-03-16T02:14:14;100400.00;;;6.40
9985;BMP180;16737;50.932;6.780;2023-03-16T02:16:41;100407.00;;;6.40
9985;BMP180;16737;50.932;6.780;2023-03-16T02:19:16;100410.00;;;6.40
9985;BMP180;16737;50.932;6.780;2023-03-16T02:21:53;100384.00;;;6.40
9985;BMP180;16737;50.932;6.780;2023-03-16T02:24:25;100403.00;;;6.50
9985;BMP180;16737;50.932;6.780;2023-03-16T02:26:57;100400.00;;;6.50
9985;BMP180;16737;50.932;6.780;2023-03-16T02:29:52;100397.00;;;6.50
9985;BMP180;16737;50.932;6.780;2023-03-16T02:32:23;100395.00;;;6.50
9985;BMP180;16737;50.932;6.780;2023-03-16T02:34:51;100371.00;;;6.50
9985;BMP180;16737;50.932;6.780;2023-03-16T02:37:19;100376.00;;;6.50
9985;BMP180;16737;50.932;6.780;2023-03-16T02:39:46;100372.00;;;6.40
9985;BMP180;16737;50.932;6.780;2023-03-16T02:42:17;100375.00;;;6.40
9985;BMP180;16737;50.932;6.780;2023-03-16T02:44:52;100378.00;;;6.40
9985;BMP180;16737;50.932;6.780;2023-03-16T02:47:29;100369.00;;;6.40
9985;BMP180;16737;50.932;6.780;2023-03-16T02:49:58;100369.00;;;6.40
9985;BMP180;16737;50.932;6.780;2023-03-16T02:52:27;100372.00;;;6.40
9985;BMP180;16737;50.932;6.780;2023-03-16T02:54:54;100352.00;;;6.40
9985;BMP180;16737;50.932;6.780;2023-03-16T02:57:21;100348.00;;;6.40
9985;BMP180;16737;50.932;6.780;2023-03-16T02:59:49;100349.00;;;6.40
9985;BMP180;16737;50.932;6.780;2023-03-16T03:02:16;100349.00;;;6.40
9985;BMP180;16737;50.932;6.780;2023-03-16T03:04:43;100345.00;;;6.40
9985;BMP180;16737;50.932;6.780;2023-03-16T03:07:11;100346.00;;;6.40
9985;BMP180;16737;50.932;6.780;2023-03-16T03:09:39;100344.00;;;6.40
9985;BMP180;16737;50.932;6.780;2023-03-16T03:12:07;100304.00;;;6.40
9985;BMP180;16737;50.932;6.780;2023-03-16T03:14:36;100343.00;;;6.50
9985;BMP180;16737;50.932;6.780;2023-03-16T03:17:05;100324.00;;;6.40
9985;BMP180;16737;50.932;6.780;2023-03-16T03:19:33;100350.00;;;6.50
9985;BMP180;16737;50.932;6.780;2023-03-16T03:22:01;100346.00;;;6.40
9985;BMP180;16737;50.932;6.780;2023-03-16T03:24:32;100324.00;;;6.50
9985;BMP180;16737;50.932;6.780;2023-03-16T03:27:00;100321.00;;;6.50
9985;BMP180;16737;50.932;6.780;2023-03-16T03:29:30;100339.00;;;6.50
9985;BMP180;16737;50.932;6.780;2023-03-16T03:31:59;100336.00;;;6.40
9985;BMP180;16737;50.932;6.780;2023-03-16T03:34:29;100338.00;;;6.40
9985;BMP180;16737;50.932;6.780;2023-03-16T03:36:57;100333.00;;;6.40
9985;BMP180;16737;50.932;6.780;2023-03-16T03:39:24;100332.00;;;6.40
9985;BMP180;16737;50.932;6.780;2023-03-16T03:41:51;100338.00;;;6.40
9985;BMP180;16737;50.932;6.780;2023-03-16T03:44:20;100331.00;;;6.40
9985;BMP180;16737;50.932;6.780;2023-03-16T03:46:47;100331.00;;;6.40
9985;BMP180;16737;50.932;6.780;2023-03-16T03:49:14;100321.00;;;6.40
9985;BMP180;16737;50.932;6.780;2023-03-16T03:51:43;100322.00;;;6.40
9985;BMP180;16737;50.932;6.780;2023-03-16T03:54:11;100325.00;;;6.40
9985;BMP180;16737;50.932;6.780;2023-03-16T03:56:38;100323.00;;;6.40
9985;BMP180;16737;50.932;6.780;2023-03-16T03:59:05;100333.00;;;6.40
9985;BMP180;16737;50.932;6.780;2023-03-16T04:01:32;100324.00;;;6.40
9985;BMP180;16737;50.932;6.780;2023-03-16T04:03:59;100332.00;;;6.40
9985;BMP180;16737;50.932;6.780;2023-03-16T04:06:26;100305.00;;;6.40
9985;BMP180;16737;50.932;6.780;2023-03-16T04:08:54;100333.00;;;6.40
9985;BMP180;16737;50.932;6.780;2023-03-16T04:11:21;100335.00;;;6.40
9985;BMP180;16737;50.932;6.780;2023-03-16T04:13:51;100321.00;;;6.40
9985;BMP180;16737;50.932;6.780;2023-03-16T04:16:19;100322.00;;;6.50
9985;BMP180;16737;50.932;6.780;2023-03-16T04:18:46;100331.00;;;6.50
9985;BMP180;16737;50.932;6.780;2023-03-16T04:21:17;100330.00;;;6.50
9985;BMP180;16737;50.932;6.780;2023-03-16T04:23:44;100336.00;;;6.50
9985;BMP180;16737;50.932;6.780;2023-03-16T04:26:13;100322.00;;;6.50
9985;BMP180;16737;50.932;6.780;2023-03-16T04:28:39;100322.00;;;6.60
9985;BMP180;16737;50.932;6.780;2023-03-16T04:31:09;100304.00;;;6.60
9985;BMP180;16737;50.932;6.780;2023-03-16T04:33:37;100308.00;;;6.60
9985;BMP180;16737;50.932;6.780;2023-03-16T04:36:06;100298.00;;;6.60
9985;BMP180;16737;50.932;6.780;2023-03-16T04:38:34;100296.00;;;6.60
9985;BMP180;16737;50.932;6.780;2023-03-16T04:41:02;100297.00;;;6.60
9985;BMP180;16737;50.932;6.780;2023-03-16T04:43:32;100282.00;;;6.60
9985;BMP180;16737;50.932;6.780;2023-03-16T04:46:00;100290.00;;;6.70
9985;BMP180;16737;50.932;6.780;2023-03-16T04:48:27;100297.00;;;6.70
9985;BMP180;16737;50.932;6.780;2023-03-16T04:50:54;100294.00;;;6.70
9985;BMP180;16737;50.932;6.780;2023-03-16T04:53:21;100282.00;;;6.70
9985;BMP180;16737;50.932;6.780;2023-03-16T04:55:48;100285.00;;;6.80
9985;BMP180;16737;50.932;6.780;2023-03-16T04:58:16;100287.00;;;6.80
9985;BMP180;16737;50.932;6.780;2023-03-16T05:00:44;100291.00;;;6.80
9985;BMP180;16737;50.932;6.780;2023-03-16T05:03:11;100288.00;;;6.80
9985;BMP180;16737;50.932;6.780;2023-03-16T05:05:39;100288.00;;;6.80
9985;BMP180;16737;50.932;6.780;2023-03-16T05:08:07;100288.00;;;6.80
9985;BMP180;16737;50.932;6.780;2023-03-16T05:10:35;100288.00;;;6.80
9985;BMP180;16737;50.932;6.780;2023-03-16T05:13:03;100286.00;;;6.80
9985;BMP180;16737;50.932;6.780;2023-03-16T05:15:30;100281.00;;;6.90
9985;BMP180;16737;50.932;6.780;2023-03-16T05:17:59;100286.00;;;6.90
9985;BMP180;16737;50.932;6.780;2023-03-16T05:20:26;100279.00;;;6.90
9985;BMP180;16737;50.932;6.780;2023-03-16T05:22:53;100289.00;;;6.90
9985;BMP180;16737;50.932;6.780;2023-03-16T05:25:20;100273.00;;;6.90
9985;BMP180;16737;50.932;6.780;2023-03-16T05:27:50;100275.00;;;6.90
9985;BMP180;16737;50.932;6.780;2023-03-16T05:30:19;100272.00;;;7.00
9985;BMP180;16737;50.932;6.780;2023-03-16T05:32:46;100283.00;;;7.00
9985;BMP180;16737;50.932;6.780;2023-03-16T05:35:14;100288.00;;;7.00
9985;BMP180;16737;50.932;6.780;2023-03-16T05:37:42;100279.00;;;7.00
9985;BMP180;16737;50.932;6.780;2023-03-16T05:40:12;100284.00;;;7.00
9985;BMP180;16737;50.932;6.780;2023-03-16T05:42:43;100287.00;;;7.00
9985;BMP180;16737;50.932;6.780;2023-03-16T05:45:11;100288.00;;;7.00
9985;BMP180;16737;50.932;6.780;2023-03-16T05:47:38;100290.00;;;7.00
9985;BMP180;16737;50.932;6.780;2023-03-16T05:50:07;100282.00;;;7.00
9985;BMP180;16737;50.932;6.780;2023-03-16T05:52:38;100290.00;;;7.00
9985;BMP180;16737;50.932;6.780;2023-03-16T05:55:08;100282.00;;;7.00
9985;BMP180;16737;50.932;6.780;2023-03-16T05:57:35;100287.00;;;7.00
9985;BMP180;16737;50.932;6.780;2023-03-16T06:00:06;100295.00;;;7.00
9985;BMP180;16737;50.932;6.780;2023-03-16T06:02:39;100271.00;;;7.00
9985;BMP180;16737;50.932;6.780;2023-03-16T06:05:07;100270.00;;;7.00
9985;BMP180;16737;50.932;6.780;2023-03-16T06:07:35;100289.00;;;7.00
9985;BMP180;16737;50.932;6.780;2023-03-16T06:10:04;100295.00;;;7.00
9985;BMP180;16737;50.932;6.780;2023-03-16T06:12:32;100296.00;;;7.00
9985;BMP180;16737;50.932;6.780;2023-03-16T06:14:59;100279.00;;;7.00
9985;BMP180;16737;50.932;6.780;2023-03-16T06:17:26;100289.00;;;7.00
9985;BMP180;16737;50.932;6.780;2023-03-16T06:19:53;100290.00;;;7.00
9985;BMP180;16737;50.932;6.780;2023-03-16T06:22:20;100303.00;;;7.00
9985;BMP180;16737;50.932;6.780;2023-03-16T06:24:48;100292.00;;;7.00
9985;BMP180;16737;50.932;6.780;2023-03-16T06:27:17;100301.00;;;7.10
9985;BMP180;16737;50.932;6.780;2023-03-16T06:29:45;100297.00;;;7.10
9985;BMP180;16737;50.932;6.780;2023-03-16T06:32:13;100286.00;;;7.10
9985;BMP180;16737;50.932;6.780;2023-03-16T06:34:40;100307.00;;;7.10
9985;BMP180;16737;50.932;6.780;2023-03-16T06:37:07;100312.00;;;6.90
9985;BMP180;16737;50.932;6.780;2023-03-16T06:39:35;100297.00;;;7.20
9985;BMP180;16737;50.932;6.780;2023-03-16T06:42:01;100294.00;;;7.20
9985;BMP180;16737;50.932;6.780;2023-03-16T06:44:31;100304.00;;;7.20
9985;BMP180;16737;50.932;6.780;2023-03-16T06:46:58;100305.00;;;7.30
9985;BMP180;16737;50.932;6.780;2023-03-16T06:49:25;100297.00;;;7.30
9985;BMP180;16737;50.932;6.780;2023-03-16T06:51:52;100312.00;;;7.30
9985;BMP180;16737;50.932;6.780;2023-03-16T06:54:20;100306.00;;;7.40
9985;BMP180;16737;50.932;6.780;2023-03-16T06:56:46;100309.00;;;7.40
9985;BMP180;16737;50.932;6.780;2023-03-16T06:59:13;100308.00;;;7.50
9985;BMP180;16737;50.932;6.780;2023-03-16T07:01:42;100317.00;;;7.50
9985;BMP180;16737;50.932;6.780;2023-03-16T07:04:09;100312.00;;;7.60
9985;BMP180;16737;50.932;6.780;2023-03-16T07:06:37;100307.00;;;7.60
9985;BMP180;16737;50.932;6.780;2023-03-16T07:09:04;100311.00;;;7.60
9985;BMP180;16737;50.932;6.780;2023-03-16T07:11:31;100319.00;;;7.70
9985;BMP180;16737;50.932;6.780;2023-03-16T07:13:58;100310.00;;;7.70
9985;BMP180;16737;50.932;6.780;2023-03-16T07:16:26;100321.00;;;7.80
9985;BMP180;16737;50.932;6.780;2023-03-16T07:18:55;100318.00;;;7.80
9985;BMP180;16737;50.932;6.780;2023-03-16T07:21:22;100317.00;;;7.90
9985;BMP180;16737;50.932;6.780;2023-03-16T07:23:49;100326.00;;;8.00
9985;BMP180;16737;50.932;6.780;2023-03-16T07:26:16;100344.00;;;8.00
9985;BMP180;16737;50.932;6.780;2023-03-16T07:28:43;100324.00;;;8.10
9985;BMP180;16737;50.932;6.780;2023-03-16T07:31:10;100337.00;;;8.10
9985;BMP180;16737;50.932;6.780;2023-03-16T07:33:37;100325.00;;;8.20
9985;BMP180;16737;50.932;6.780;2023-03-16T07:36:07;100346.00;;;8.30
9985;BMP180;16737;50.932;6.780;2023-03-16T07:38:35;100323.00;;;8.30
9985;BMP180;16737;50.932;6.780;2023-03-16T07:41:02;100276.00;;;8.40
9985;BMP180;16737;50.932;6.780;2023-03-16T07:43:29;100323.00;;;8.50
9985;BMP180;16737;50.932;6.780;2023-03-16T07:45:56;100313.00;;;8.60
9985;BMP180;16737;50.932;6.780;2023-03-16T07:48:23;100315.00;;;8.60
9985;BMP180;16737;50.932;6.780;2023-03-16T07:50:50;100321.00;;;8.70
9985;BMP180;16737;50.932;6.780;2023-03-16T07:53:20;100313.00;;;8.70
9985;BMP180;16737;50.932;6.780;2023-03-16T07:55:47;100323.00;;;8.80
9985;BMP180;16737;50.932;6.780;2023-03-16T07:58:14;100260.00;;;8.80
9985;BMP180;16737;50.932;6.780;2023-03-16T08:00:41;100312.00;;;8.90
9985;BMP180;16737;50.932;6.780;2023-03-16T08:03:08;100305.00;;;9.00
9985;BMP180;16737;50.932;6.780;2023-03-16T08:05:35;100308.00;;;9.00
9985;BMP180;16737;50.932;6.780;2023-03-16T08:08:02;100313.00;;;9.10
9985;BMP180;16737;50.932;6.780;2023-03-16T08:10:30;100310.00;;;9.10
9985;BMP180;16737;50.932;6.780;2023-03-16T08:12:58;100317.00;;;9.10
9985;BMP180;16737;50.932;6.780;2023-03-16T08:15:25;100316.00;;;9.20
9985;BMP180;16737;50.932;6.780;2023-03-16T08:17:52;100324.00;;;9.20
9985;BMP180;16737;50.932;6.780;2023-03-16T08:20:19;100317.00;;;9.20
9985;BMP180;16737;50.932;6.780;2023-03-16T08:22:46;100331.00;;;9.30
9985;BMP180;16737;50.932;6.780;2023-03-16T08:25:16;100330.00;;;9.30
9985;BMP180;16737;50.932;6.780;2023-03-16T08:27:46;100325.00;;;9.40
9985;BMP180;16737;50.932;6.780;2023-03-16T08:30:15;100322.00;;;9.50
9985;BMP180;16737;50.932;6.780;2023-03-16T08:32:43;100299.00;;;9.50
9985;BMP180;16737;50.932;6.780;2023-03-16T08:35:13;100298.00;;;9.50
9985;BMP180;16737;50.932;6.780;2023-03-16T08:37:41;100297.00;;;9.60
9985;BMP180;16737;50.932;6.780;2023-03-16T08:40:11;100300.00;;;9.70
9985;BMP180;16737;50.932;6.780;2023-03-16T08:42:41;100310.00;;;9.70
9985;BMP180;16737;50.932;6.780;2023-03-16T08:45:11;100308.00;;;9.80
9985;BMP180;16737;50.932;6.780;2023-03-16T08:47:39;100311.00;;;9.80
9985;BMP180;16737;50.932;6.780;2023-03-16T08:50:09;100306.00;;;9.90
9985;BMP180;16737;50.932;6.780;2023-03-16T08:52:37;100300.00;;;9.90
9985;BMP180;16737;50.932;6.780;2023-03-16T08:55:06;100310.00;;;10.00
9985;BMP180;16737;50.932;6.780;2023-03-16T08:57:35;100314.00;;;10.00
9985;BMP180;16737;50.932;6.780;2023-03-16T09:00:05;100318.00;;;10.10
9985;BMP180;16737;50.932;6.780;2023-03-16T09:02:40;100303.00;;;10.10
9985;BMP180;16737;50.932;6.780;2023-03-16T09:05:09;100301.00;;;10.20
9985;BMP180;16737;50.932;6.780;2023-03-16T09:07:37;100305.00;;;10.30
9985;BMP180;16737;50.932;6.780;2023-03-16T09:10:05;100304.00;;;10.30
9985;BMP180;16737;50.932;6.780;2023-03-16T09:12:35;100300.00;;;10.40
9985;BMP180;16737;50.932;6.780;2023-03-16T09:15:03;100305.00;;;10.40
9985;BMP180;16737;50.932;6.780;2023-03-16T09:17:31;100300.00;;;10.50
9985;BMP180;16737;50.932;6.780;2023-03-16T09:19:59;100313.00;;;10.50
9985;BMP180;16737;50.932;6.780;2023-03-16T09:22:27;100297.00;;;10.60
9985;BMP180;16737;50.932;6.780;2023-03-16T09:24:54;100301.00;;;10.60
9985;BMP180;16737;50.932;6.780;2023-03-16T09:27:21;100293.00;;;10.70
9985;BMP180;16737;50.932;6.780;2023-03-16T09:29:48;100298.00;;;10.80
9985;BMP180;16737;50.932;6.780;2023-03-16T09:32:17;100296.00;;;10.80
9985;BMP180;16737;50.932;6.780;2023-03-16T09:34:44;100299.00;;;10.90
9985;BMP180;16737;50.932;6.780;2023-03-16T09:37:13;100288.00;;;10.90
9985;BMP180;16737;50.932;6.780;2023-03-16T09:39:40;100298.00;;;11.00
9985;BMP180;16737;50.932;6.780;2023-03-16T09:42:16;100297.00;;;11.00
9985;BMP180;16737;50.932;6.780;2023-03-16T09:44:58;100289.00;;;11.00
9985;BMP180;16737;50.932;6.780;2023-03-16T09:47:33;100297.00;;;11.00
9985;BMP180;16737;50.932;6.780;2023-03-16T09:50:04;100279.00;;;11.10
9985;BMP180;16737;50.932;6.780;2023-03-16T09:52:43;100242.00;;;11.10
9985;BMP180;16737;50.932;6.780;2023-03-16T09:55:25;100284.00;;;11.10
9985;BMP180;16737;50.932;6.780;2023-03-16T09:57:54;100275.00;;;11.10
9985;BMP180;16737;50.932;6.780;2023-03-16T10:00:26;100276.00;;;11.20
9985;BMP180;16737;50.932;6.780;2023-03-16T10:03:16;100268.00;;;11.20
9985;BMP180;16737;50.932;6.780;2023-03-16T10:05:51;100271.00;;;11.20
9985;BMP180;16737;50.932;6.780;2023-03-16T10:08:24;100270.00;;;11.20
9985;BMP180;16737;50.932;6.780;2023-03-16T10:11:29;100257.00;;;11.20
9985;BMP180;16737;50.932;6.780;2023-03-16T10:14:04;100274.00;;;11.30
9985;BMP180;16737;50.932;6.780;2023-03-16T10:16:41;100263.00;;;11.30
9985;BMP180;16737;50.932;6.780;2023-03-16T10:19:18;100263.00;;;11.30
9985;BMP180;16737;50.932;6.780;2023-03-16T10:21:49;100263.00;;;11.30
9985;BMP180;16737;50.932;6.780;2023-03-16T10:24:40;100257.00;;;11.40
9985;BMP180;16737;50.932;6.780;2023-03-16T10:27:18;100254.00;;;11.40
9985;BMP180;16737;50.932;6.780;2023-03-16T10:29:46;100262.00;;;11.60
9985;BMP180;16737;50.932;6.780;2023-03-16T10:32:17;100266.00;;;11.60
9985;BMP180;16737;50.932;6.780;2023-03-16T10:34:52;100257.00;;;11.70
9985;BMP180;16737;50.932;6.780;2023-03-16T10:37:22;100272.00;;;11.80
9985;BMP180;16737;50.932;6.780;2023-03-16T10:39:51;100263.00;;;11.90
9985;BMP180;16737;50.932;6.780;2023-03-16T10:42:20;100260.00;;;11.80
9985;BMP180;16737;50.932;6.780;2023-03-16T10:44:47;100259.00;;;12.10
9985;BMP180;16737;50.932;6.780;2023-03-16T10:47:22;100253.00;;;12.10
9985;BMP180;16737;50.932;6.780;2023-03-16T10:49:49;100247.00;;;12.20
9985;BMP180;16737;50.932;6.780;2023-03-16T10:52:22;100247.00;;;12.20
9985;BMP180;16737;50.932;6.780;2023-03-16T10:54:57;100249.00;;;12.20
9985;BMP180;16737;50.932;6.780;2023-03-16T10:57:28;100228.00;;;12.40
9985;BMP180;16737;50.932;6.780;2023-03-16T11:00:05;100242.00;;;12.40
9985;BMP180;16737;50.932;6.780;2023-03-16T11:02:46;100230.00;;;12.50
9985;BMP180;16737;50.932;6.780;2023-03-16T11:05:25;100220.00;;;12.60
9985;BMP180;16737;50.932;6.780;2023-03-16T11:08:00;100209.00;;;12.80
9985;BMP180;16737;50.932;6.780;2023-03-16T11:10:32;100219.00;;;12.90
9985;BMP180;16737;50.932;6.780;2023-03-16T11:13:12;100216.00;;;13.00
9985;BMP180;16737;50.932;6.780;2023-03-16T11:15:48;100230.00;;;13.20
9985;BMP180;16737;50.932;6.780;2023-03-16T11:18:27;100236.00;;;13.40
9985;BMP180;16737;50.932;6.780;2023-03-16T11:20:57;100226.00;;;13.60
9985;BMP180;16737;50.932;6.780;2023-03-16T11:23:32;100209.00;;;13.70
9985;BMP180;16737;50.932;6.780;2023-03-16T11:26:07;100214.00;;;13.80
9985;BMP180;16737;50.932;6.780;2023-03-16T11:28:42;100202.00;;;13.90
9985;BMP180;16737;50.932;6.780;2023-03-16T11:31:22;100200.00;;;14.00
9985;BMP180;16737;50.932;6.780;2023-03-16T11:34:01;100185.00;;;14.10
9985;BMP180;16737;50.932;6.780;2023-03-16T11:36:41;100183.00;;;14.10
9985;BMP180;16737;50.932;6.780;2023-03-16T11:39:30;100199.00;;;14.20
9985;BMP180;16737;50.932;6.780;2023-03-16T11:42:20;100192.00;;;14.20
9985;BMP180;16737;50.932;6.780;2023-03-16T11:44:54;100194.00;;;14.30
9985;BMP180;16737;50.932;6.780;2023-03-16T11:47:58;100187.00;;;14.40
9985;BMP180;16737;50.932;6.780;2023-03-16T11:50:44;100173.00;;;14.60
9985;BMP180;16737;50.932;6.780;2023-03-16T11:53:28;100164.00;;;14.70
9985;BMP180;16737;50.932;6.780;2023-03-16T11:56:12;100172.00;;;14.80
9985;BMP180;16737;50.932;6.780;2023-03-16T11:59:02;100166.00;;;14.90
9985;BMP180;16737;50.932;6.780;2023-03-16T12:01:55;100172.00;;;15.00
9985;BMP180;16737;50.932;6.780;2023-03-16T12:04:45;100161.00;;;14.50
9985;BMP180;16737;50.932;6.780;2023-03-16T12:07:36;100153.00;;;15.10
9985;BMP180;16737;50.932;6.780;2023-03-16T12:10:28;100155.00;;;15.20
9985;BMP180;16737;50.932;6.780;2023-03-16T12:13:24;100155.00;;;15.40
9985;BMP180;16737;50.932;6.780;2023-03-16T12:16:01;100145.00;;;15.50
9985;BMP180;16737;50.932;6.780;2023-03-16T12:18:41;100139.00;;;15.50
9985;BMP180;16737;50.932;6.780;2023-03-16T12:21:16;100124.00;;;15.60
9985;BMP180;16737;50.932;6.780;2023-03-16T12:23:51;100140.00;;;15.70
9985;BMP180;16737;50.932;6.780;2023-03-16T12:26:23;100128.00;;;15.70
9985;BMP180;16737;50.932;6.780;2023-03-16T12:28:57;100135.00;;;15.70
9985;BMP180;16737;50.932;6.780;2023-03-16T12:31:38;100129.00;;;15.70
9985;BMP180;16737;50.932;6.780;2023-03-16T12:34:18;100108.00;;;15.70
9985;BMP180;16737;50.932;6.780;2023-03-16T12:36:59;100114.00;;;15.70
9985;BMP180;16737;50.932;6.780;2023-03-16T12:39:45;100103.00;;;15.60
9985;BMP180;16737;50.932;6.780;2023-03-16T12:45:31;100089.00;;;15.60
9985;BMP180;16737;50.932;6.780;2023-03-16T12:48:14;100070.00;;;15.60
9985;BMP180;16737;50.932;6.780;2023-03-16T12:50:51;100061.00;;;15.60
9985;BMP180;16737;50.932;6.780;2023-03-16T12:53:28;100078.00;;;15.60
9985;BMP180;16737;50.932;6.780;2023-03-16T12:56:07;100063.00;;;15.60
9985;BMP180;16737;50.932;6.780;2023-03-16T12:58:35;100063.00;;;15.60
9985;BMP180;16737;50.932;6.780;2023-03-16T13:01:09;100060.00;;;15.60
9985;BMP180;16737;50.932;6.780;2023-03-16T13:03:40;100051.00;;;15.60
9985;BMP180;16737;50.932;6.780;2023-03-16T13:06:18;100053.00;;;15.60
9985;BMP180;16737;50.932;6.780;2023-03-16T13:08:50;100054.00;;;15.60
9985;BMP180;16737;50.932;6.780;2023-03-16T13:11:18;100046.00;;;15.60
9985;BMP180;16737;50.932;6.780;2023-03-16T13:13:52;100048.00;;;15.60
9985;BMP180;16737;50.932;6.780;2023-03-16T13:16:33;100039.00;;;15.70
9985;BMP180;16737;50.932;6.780;2023-03-16T13:19:21;100038.00;;;15.60
9985;BMP180;16737;50.932;6.780;2023-03-16T13:22:02;100040.00;;;15.50
9985;BMP180;16737;50.932;6.780;2023-03-16T13:24:37;100034.00;;;15.60
9985;BMP180;16737;50.932;6.780;2023-03-16T13:27:19;100037.00;;;15.60
9985;BMP180;16737;50.932;6.780;2023-03-16T13:29:54;100037.00;;;15.70
9985;BMP180;16737;50.932;6.780;2023-03-16T13:32:23;100028.00;;;15.70
9985;BMP180;16737;50.932;6.780;2023-03-16T13:34:58;100031.00;;;15.80
9985;BMP180;16737;50.932;6.780;2023-03-16T13:37:28;100036.00;;;15.90
9985;BMP180;16737;50.932;6.780;2023-03-16T13:39:57;100035.00;;;16.00
9985;BMP180;16737;50.932;6.780;2023-03-16T13:42:29;100021.00;;;16.00
9985;BMP180;16737;50.932;6.780;2023-03-16T13:45:00;100012.00;;;16.10
9985;BMP180;16737;50.932;6.780;2023-03-16T13:47:29;100017.00;;;16.10
9985;BMP180;16737;50.932;6.780;2023-03-16T13:49:59;99999.00;;;16.10
9985;BMP180;16737;50.932;6.780;2023-03-16T13:52:28;99998.00;;;16.00
9985;BMP180;16737;50.932;6.780;2023-03-16T13:54:58;100004.00;;;16.00
9985;BMP180;16737;50.932;6.780;2023-03-16T13:57:29;99988.00;;;16.00
9985;BMP180;16737;50.932;6.780;2023-03-16T14:00:06;99984.00;;;16.00
9985;BMP180;16737;50.932;6.780;2023-03-16T14:02:42;99983.00;;;16.10
9985;BMP180;16737;50.932;6.780;2023-03-16T14:05:16;99985.00;;;16.10
9985;BMP180;16737;50.932;6.780;2023-03-16T14:07:48;99973.00;;;16.20
9985;BMP180;16737;50.932;6.780;2023-03-16T14:10:16;99969.00;;;16.20
9985;BMP180;16737;50.932;6.780;2023-03-16T14:12:52;99973.00;;;16.30
9985;BMP180;16737;50.932;6.780;2023-03-16T14:15:20;99968.00;;;16.30
9985;BMP180;16737;50.932;6.780;2023-03-16T14:17:48;99961.00;;;16.40
9985;BMP180;16737;50.932;6.780;2023-03-16T14:20:21;99956.00;;;16.40
9985;BMP180;16737;50.932;6.780;2023-03-16T14:22:51;99942.00;;;16.50
9985;BMP180;16737;50.932;6.780;2023-03-16T14:25:21;99950.00;;;16.50
9985;BMP180;16737;50.932;6.780;2023-03-16T14:27:58;99945.00;;;16.50
9985;BMP180;16737;50.932;6.780;2023-03-16T14:30:28;99942.00;;;16.50
9985;BMP180;16737;50.932;6.780;2023-03-16T14:32:59;99934.00;;;16.50
9985;BMP180;16737;50.932;6.780;2023-03-16T14:35:30;99933.00;;;16.50
9985;BMP180;16737;50.932;6.780;2023-03-16T14:38:18;99916.00;;;16.50
9985;BMP180;16737;50.932;6.780;2023-03-16T14:40:52;99915.00;;;16.60
9985;BMP180;16737;50.932;6.780;2023-03-16T14:43:26;99927.00;;;16.60